createdAt,value
2018-08-18T00:00:04.097Z,13
2018-08-18T00:00:16.536Z,338
2018-08-18T00:00:28.974Z,5
2018-08-18T00:00:41.391Z,10
2018-08-18T00:00:53.819Z,339
2018-08-18T00:01:06.243Z,32
2018-08-18T00:01:18.677Z,49
2018-08-18T00:01:31.104Z,9
2018-08-18T00:01:43.525Z,19
2018-08-18T00:01:55.936Z,9
2018-08-18T00:02:08.359Z,338
2018-08-18T00:02:20.784Z,5
2018-08-18T00:02:33.389Z,314
2018-08-18T00:02:45.802Z,11
2018-08-18T00:02:58.263Z,36
2018-08-18T00:03:10.708Z,342
2018-08-18T00:03:23.118Z,337
2018-08-18T00:03:35.551Z,344
2018-08-18T00:03:47.960Z,355
2018-08-18T00:04:00.375Z,12
2018-08-18T00:04:12.789Z,335
2018-08-18T00:04:25.205Z,331
2018-08-18T00:04:37.668Z,316
2018-08-18T00:04:50.083Z,325
2018-08-18T00:05:02.511Z,335
2018-08-18T00:05:14.935Z,355
2018-08-18T00:05:27.345Z,314
2018-08-18T00:05:39.765Z,314
2018-08-18T00:05:52.181Z,314
2018-08-18T00:06:04.611Z,355
2018-08-18T00:06:17.031Z,20
2018-08-18T00:06:29.448Z,9
2018-08-18T00:06:41.875Z,5
2018-08-18T00:06:54.285Z,355
2018-08-18T00:07:06.730Z,336
2018-08-18T00:07:19.142Z,333
2018-08-18T00:07:31.565Z,333
2018-08-18T00:07:44.083Z,9
2018-08-18T00:07:56.566Z,13
2018-08-18T00:08:09.008Z,13
2018-08-18T00:08:21.439Z,13
2018-08-18T00:08:33.964Z,11
2018-08-18T00:08:46.397Z,339
2018-08-18T00:08:58.822Z,302
2018-08-18T00:09:11.241Z,331
2018-08-18T00:09:23.666Z,24
2018-08-18T00:09:36.079Z,19
2018-08-18T00:09:48.511Z,19
2018-08-18T00:10:00.919Z,11
2018-08-18T00:10:13.372Z,11
2018-08-18T00:10:25.844Z,355
2018-08-18T00:10:38.402Z,317
2018-08-18T00:10:50.825Z,317
2018-08-18T00:11:03.302Z,346
2018-08-18T00:11:15.747Z,5
2018-08-18T00:11:28.170Z,360
2018-08-18T00:11:40.615Z,348
2018-08-18T00:11:53.034Z,19
2018-08-18T00:12:05.464Z,5
2018-08-18T00:12:17.901Z,360
2018-08-18T00:12:30.298Z,360
2018-08-18T00:12:42.713Z,325
2018-08-18T00:12:55.143Z,338
2018-08-18T00:13:07.572Z,5
2018-08-18T00:13:19.999Z,31
2018-08-18T00:13:32.960Z,332
2018-08-18T00:13:45.418Z,340
2018-08-18T00:13:57.840Z,28
2018-08-18T00:14:10.266Z,24
2018-08-18T00:14:22.696Z,5
2018-08-18T00:14:35.126Z,323
2018-08-18T00:14:47.568Z,313
2018-08-18T00:14:59.989Z,323
2018-08-18T00:15:12.407Z,336
2018-08-18T00:15:24.853Z,5
2018-08-18T00:15:37.281Z,5
2018-08-18T00:15:49.709Z,20
2018-08-18T00:16:02.121Z,17
2018-08-18T00:16:14.546Z,18
2018-08-18T00:16:26.965Z,18
2018-08-18T00:16:39.557Z,310
2018-08-18T00:16:51.962Z,329
2018-08-18T00:17:04.393Z,340
2018-08-18T00:17:16.844Z,314
2018-08-18T00:17:29.301Z,317
2018-08-18T00:17:41.720Z,324
2018-08-18T00:17:54.418Z,306
2018-08-18T00:18:06.833Z,304
2018-08-18T00:18:19.259Z,311
2018-08-18T00:18:31.727Z,321
2018-08-18T00:18:44.161Z,325
2018-08-18T00:18:56.581Z,328
2018-08-18T00:19:09.031Z,315
2018-08-18T00:19:21.437Z,326
2018-08-18T00:19:33.853Z,316
2018-08-18T00:19:46.277Z,306
2018-08-18T00:19:58.679Z,19
2018-08-18T00:20:11.102Z,322
2018-08-18T00:20:23.590Z,339
2018-08-18T00:20:36.014Z,329
2018-08-18T00:20:48.533Z,348
2018-08-18T00:21:00.945Z,350
2018-08-18T00:21:13.379Z,338
2018-08-18T00:21:25.835Z,336
2018-08-18T00:21:38.261Z,337
2018-08-18T00:21:50.685Z,336
2018-08-18T00:22:03.114Z,345
2018-08-18T00:22:15.744Z,355
2018-08-18T00:22:28.152Z,346
2018-08-18T00:22:40.564Z,348
2018-08-18T00:22:52.974Z,338
2018-08-18T00:23:05.390Z,327
2018-08-18T00:23:17.797Z,328
2018-08-18T00:23:30.245Z,328
2018-08-18T00:23:42.668Z,331
2018-08-18T00:23:55.093Z,331
2018-08-18T00:24:07.498Z,331
2018-08-18T00:24:19.903Z,355
2018-08-18T00:24:32.310Z,355
2018-08-18T00:24:44.786Z,339
2018-08-18T00:24:57.211Z,340
2018-08-18T00:25:09.798Z,360
2018-08-18T00:25:22.271Z,355
2018-08-18T00:25:34.690Z,340
2018-08-18T00:25:47.103Z,5
2018-08-18T00:25:59.503Z,342
2018-08-18T00:26:11.906Z,355
2018-08-18T00:26:24.316Z,5
2018-08-18T00:26:36.720Z,342
2018-08-18T00:26:49.305Z,320
2018-08-18T00:27:01.723Z,319
2018-08-18T00:27:14.138Z,39
2018-08-18T00:27:26.749Z,360
2018-08-18T00:27:39.158Z,351
2018-08-18T00:27:51.581Z,345
2018-08-18T00:28:03.998Z,334
2018-08-18T00:28:16.403Z,324
2018-08-18T00:28:28.804Z,322
2018-08-18T00:28:41.198Z,312
2018-08-18T00:28:53.605Z,313
2018-08-18T00:29:06.020Z,313
2018-08-18T00:29:18.577Z,324
2018-08-18T00:29:31.175Z,319
2018-08-18T00:29:43.587Z,321
2018-08-18T00:29:56.002Z,346
2018-08-18T00:30:08.399Z,333
2018-08-18T00:30:20.866Z,334
2018-08-18T00:30:33.287Z,306
2018-08-18T00:30:45.725Z,306
2018-08-18T00:30:58.136Z,51
2018-08-18T00:31:10.539Z,13
2018-08-18T00:31:22.937Z,28
2018-08-18T00:31:35.342Z,28
2018-08-18T00:31:47.767Z,28
2018-08-18T00:32:00.202Z,360
2018-08-18T00:32:12.628Z,14
2018-08-18T00:32:25.045Z,17
2018-08-18T00:32:37.436Z,9
2018-08-18T00:32:49.978Z,9
2018-08-18T00:33:02.403Z,9
2018-08-18T00:33:14.828Z,309
2018-08-18T00:33:27.271Z,309
2018-08-18T00:33:39.691Z,335
2018-08-18T00:33:52.086Z,330
2018-08-18T00:34:04.482Z,332
2018-08-18T00:34:17.499Z,332
2018-08-18T00:34:30.798Z,333
2018-08-18T00:34:43.229Z,333
2018-08-18T00:34:55.667Z,333
2018-08-18T00:35:08.097Z,360
2018-08-18T00:35:20.639Z,348
2018-08-18T00:35:33.129Z,348
2018-08-18T00:35:45.585Z,348
2018-08-18T00:35:58.055Z,348
2018-08-18T00:36:10.474Z,9
2018-08-18T00:36:22.943Z,9
2018-08-18T00:36:35.359Z,9
2018-08-18T00:36:47.835Z,10
2018-08-18T00:37:00.384Z,10
2018-08-18T00:37:12.792Z,360
2018-08-18T00:37:25.243Z,360
2018-08-18T00:37:37.723Z,5
2018-08-18T00:37:50.153Z,5
2018-08-18T00:38:02.592Z,304
2018-08-18T00:38:15.016Z,304
2018-08-18T00:38:27.414Z,308
2018-08-18T00:38:39.958Z,308
2018-08-18T00:38:52.367Z,308
2018-08-18T00:39:04.783Z,308
2018-08-18T00:39:17.206Z,300
2018-08-18T00:39:29.632Z,286
2018-08-18T00:39:42.068Z,306
2018-08-18T00:39:54.546Z,306
2018-08-18T00:40:07.012Z,306
2018-08-18T00:40:19.582Z,306
2018-08-18T00:40:32.071Z,306
2018-08-18T00:40:44.510Z,306
2018-08-18T00:40:56.939Z,306
2018-08-18T00:41:09.363Z,306
2018-08-18T00:41:21.827Z,306
2018-08-18T00:41:34.237Z,306
2018-08-18T00:41:46.661Z,306
2018-08-18T00:41:59.085Z,306
2018-08-18T00:42:11.505Z,306
2018-08-18T00:42:23.947Z,306
2018-08-18T00:42:36.385Z,306
2018-08-18T00:42:48.852Z,306
2018-08-18T00:43:01.283Z,306
2018-08-18T00:43:13.746Z,360
2018-08-18T00:43:26.238Z,345
2018-08-18T00:43:38.646Z,335
2018-08-18T00:43:51.057Z,341
2018-08-18T00:44:03.472Z,341
2018-08-18T00:44:15.886Z,342
2018-08-18T00:44:28.376Z,338
2018-08-18T00:44:40.798Z,338
2018-08-18T00:44:53.246Z,338
2018-08-18T00:45:05.662Z,338
2018-08-18T00:45:18.115Z,338
2018-08-18T00:45:30.580Z,324
2018-08-18T00:45:43.002Z,311
2018-08-18T00:45:55.429Z,325
2018-08-18T00:46:07.863Z,325
2018-08-18T00:46:20.280Z,325
2018-08-18T00:46:32.693Z,325
2018-08-18T00:46:45.111Z,327
2018-08-18T00:46:57.538Z,344
2018-08-18T00:47:09.978Z,344
2018-08-18T00:47:22.409Z,319
2018-08-18T00:47:34.818Z,333
2018-08-18T00:47:47.308Z,334
2018-08-18T00:47:59.717Z,340
2018-08-18T00:48:12.137Z,23
2018-08-18T00:48:24.564Z,46
2018-08-18T00:48:36.967Z,41
2018-08-18T00:48:49.383Z,350
2018-08-18T00:49:01.887Z,350
2018-08-18T00:49:14.294Z,350
2018-08-18T00:49:26.744Z,350
2018-08-18T00:49:39.166Z,350
2018-08-18T00:49:51.584Z,350
2018-08-18T00:50:04.005Z,350
2018-08-18T00:50:16.425Z,34
2018-08-18T00:50:28.853Z,34
2018-08-18T00:50:41.277Z,34
2018-08-18T00:50:53.698Z,15
2018-08-18T00:51:06.116Z,355
2018-08-18T00:51:18.613Z,355
2018-08-18T00:51:31.019Z,355
2018-08-18T00:51:43.443Z,355
2018-08-18T00:51:56.024Z,355
2018-08-18T00:52:08.431Z,355
2018-08-18T00:52:20.863Z,355
2018-08-18T00:52:33.274Z,355
2018-08-18T00:52:45.742Z,5
2018-08-18T00:52:58.160Z,326
2018-08-18T00:53:10.599Z,325
2018-08-18T00:53:23.045Z,325
2018-08-18T00:53:35.465Z,325
2018-08-18T00:53:47.873Z,340
2018-08-18T00:54:00.391Z,331
2018-08-18T00:54:12.785Z,355
2018-08-18T00:54:25.204Z,360
2018-08-18T00:54:37.608Z,329
2018-08-18T00:54:50.022Z,326
2018-08-18T00:55:02.427Z,329
2018-08-18T00:55:14.850Z,355
2018-08-18T00:55:27.289Z,345
2018-08-18T00:55:39.713Z,351
2018-08-18T00:55:52.137Z,21
2018-08-18T00:56:04.553Z,360
2018-08-18T00:56:17.079Z,5
2018-08-18T00:56:29.517Z,360
2018-08-18T00:56:41.946Z,355
2018-08-18T00:56:54.354Z,360
2018-08-18T00:57:06.768Z,19
2018-08-18T00:57:19.183Z,5
2018-08-18T00:57:31.606Z,5
2018-08-18T00:57:44.061Z,5
2018-08-18T00:57:56.466Z,5
2018-08-18T00:58:08.901Z,5
2018-08-18T00:58:21.311Z,5
2018-08-18T00:58:33.740Z,5
2018-08-18T00:58:46.163Z,5
2018-08-18T00:58:58.616Z,5
2018-08-18T00:59:11.281Z,346
2018-08-18T00:59:23.697Z,331
2018-08-18T00:59:36.107Z,331
2018-08-18T00:59:48.513Z,331
2018-08-18T01:00:00.937Z,355
2018-08-18T01:00:13.391Z,355
2018-08-18T01:00:25.849Z,355
2018-08-18T01:00:38.307Z,355
2018-08-18T01:00:50.754Z,355
2018-08-18T01:01:03.174Z,355
2018-08-18T01:01:15.612Z,355
2018-08-18T01:01:28.046Z,355
2018-08-18T01:01:40.457Z,355
2018-08-18T01:01:52.886Z,355
2018-08-18T01:02:05.328Z,355
2018-08-18T01:02:17.773Z,355
2018-08-18T01:02:30.216Z,355
2018-08-18T01:02:42.822Z,355
2018-08-18T01:02:55.312Z,355
2018-08-18T01:03:07.736Z,355
2018-08-18T01:03:20.213Z,355
2018-08-18T01:03:32.669Z,355
2018-08-18T01:03:45.124Z,355
2018-08-18T01:03:57.565Z,355
2018-08-18T01:04:09.992Z,355
2018-08-18T01:04:22.404Z,355
2018-08-18T01:04:34.810Z,355
2018-08-18T01:04:47.218Z,13
2018-08-18T01:04:59.648Z,347
2018-08-18T01:05:12.083Z,351
2018-08-18T01:05:24.510Z,351
2018-08-18T01:05:36.928Z,351
2018-08-18T01:05:49.328Z,351
2018-08-18T01:06:01.737Z,360
2018-08-18T01:06:14.168Z,355
2018-08-18T01:06:26.594Z,355
2018-08-18T01:06:39.030Z,348
2018-08-18T01:06:51.457Z,348
2018-08-18T01:07:03.880Z,346
2018-08-18T01:07:16.284Z,349
2018-08-18T01:07:28.710Z,349
2018-08-18T01:07:41.149Z,349
2018-08-18T01:07:53.555Z,349
2018-08-18T01:08:05.966Z,349
2018-08-18T01:08:18.411Z,349
2018-08-18T01:08:30.918Z,350
2018-08-18T01:08:43.348Z,343
2018-08-18T01:08:55.754Z,348
2018-08-18T01:09:08.181Z,348
2018-08-18T01:09:20.602Z,11
2018-08-18T01:09:33.021Z,11
2018-08-18T01:09:45.480Z,11
2018-08-18T01:09:57.919Z,11
2018-08-18T01:10:10.390Z,346
2018-08-18T01:10:22.823Z,316
2018-08-18T01:10:35.244Z,327
2018-08-18T01:10:47.817Z,18
2018-08-18T01:11:01.496Z,17
2018-08-18T01:11:15.617Z,12
2018-08-18T01:11:29.730Z,360
2018-08-18T01:11:44.612Z,316
2018-08-18T01:11:58.835Z,313
2018-08-18T01:12:13.558Z,313
2018-08-18T01:12:27.574Z,313
2018-08-18T01:12:42.738Z,313
2018-08-18T01:12:56.557Z,313
2018-08-18T01:13:10.110Z,313
2018-08-18T01:13:23.351Z,313
2018-08-18T01:13:36.127Z,313
2018-08-18T01:13:50.289Z,313
2018-08-18T01:14:04.401Z,313
2018-08-18T01:14:18.569Z,313
2018-08-18T01:14:32.950Z,313
2018-08-18T01:14:46.324Z,313
2018-08-18T01:15:00.541Z,313
2018-08-18T01:15:13.346Z,313
2018-08-18T01:15:25.770Z,317
2018-08-18T01:15:38.707Z,317
2018-08-18T01:15:52.266Z,317
2018-08-18T01:16:04.810Z,328
2018-08-18T01:16:17.251Z,343
2018-08-18T01:16:29.705Z,349
2018-08-18T01:16:42.991Z,338
2018-08-18T01:16:55.430Z,334
2018-08-18T01:17:07.859Z,339
2018-08-18T01:17:20.289Z,339
2018-08-18T01:17:32.702Z,339
2018-08-18T01:17:45.387Z,339
2018-08-18T01:17:57.839Z,339
2018-08-18T01:18:10.325Z,339
2018-08-18T01:18:22.754Z,339
2018-08-18T01:18:35.195Z,341
2018-08-18T01:18:47.663Z,349
2018-08-18T01:19:00.100Z,348
2018-08-18T01:19:12.521Z,331
2018-08-18T01:19:24.956Z,331
2018-08-18T01:19:37.353Z,331
2018-08-18T01:19:49.747Z,337
2018-08-18T01:20:02.174Z,337
2018-08-18T01:20:14.602Z,342
2018-08-18T01:20:27.009Z,342
2018-08-18T01:20:39.646Z,342
2018-08-18T01:20:52.080Z,342
2018-08-18T01:21:04.496Z,342
2018-08-18T01:21:16.978Z,340
2018-08-18T01:21:30.177Z,340
2018-08-18T01:21:43.200Z,340
2018-08-18T01:21:55.606Z,340
2018-08-18T01:22:08.026Z,340
2018-08-18T01:22:20.511Z,340
2018-08-18T01:22:32.930Z,340
2018-08-18T01:22:45.371Z,340
2018-08-18T01:22:57.806Z,340
2018-08-18T01:23:10.268Z,340
2018-08-18T01:23:22.696Z,340
2018-08-18T01:23:35.149Z,340
2018-08-18T01:23:47.571Z,340
2018-08-18T01:24:00.004Z,340
2018-08-18T01:24:12.446Z,340
2018-08-18T01:24:24.914Z,340
2018-08-18T01:24:37.339Z,340
2018-08-18T01:24:49.772Z,340
2018-08-18T01:25:02.235Z,340
2018-08-18T01:25:14.651Z,340
2018-08-18T01:25:27.057Z,340
2018-08-18T01:25:39.548Z,340
2018-08-18T01:25:51.993Z,340
2018-08-18T01:26:04.449Z,340
2018-08-18T01:26:16.882Z,340
2018-08-18T01:26:29.307Z,340
2018-08-18T01:26:41.798Z,340
2018-08-18T01:26:54.216Z,340
2018-08-18T01:27:07.284Z,340
2018-08-18T01:27:20.484Z,340
2018-08-18T01:27:33.072Z,340
2018-08-18T01:27:45.512Z,340
2018-08-18T01:27:57.955Z,340
2018-08-18T01:28:10.373Z,340
2018-08-18T01:28:22.797Z,340
2018-08-18T01:28:35.231Z,340
2018-08-18T01:28:47.659Z,340
2018-08-18T01:29:00.069Z,340
2018-08-18T01:29:12.492Z,340
2018-08-18T01:29:24.904Z,340
2018-08-18T01:29:37.341Z,340
2018-08-18T01:29:49.770Z,340
2018-08-18T01:30:02.196Z,340
2018-08-18T01:30:14.620Z,340
2018-08-18T01:30:27.061Z,340
2018-08-18T01:30:39.509Z,340
2018-08-18T01:30:51.945Z,340
2018-08-18T01:31:04.385Z,340
2018-08-18T01:31:16.852Z,340
2018-08-18T01:31:29.293Z,340
2018-08-18T01:31:41.740Z,340
2018-08-18T01:31:54.187Z,339
2018-08-18T01:32:06.589Z,340
2018-08-18T01:32:18.994Z,340
2018-08-18T01:32:31.562Z,340
2018-08-18T01:32:44.099Z,350
2018-08-18T01:32:56.500Z,350
2018-08-18T01:33:08.914Z,350
2018-08-18T01:33:21.353Z,302
2018-08-18T01:33:33.774Z,301
2018-08-18T01:33:46.198Z,301
2018-08-18T01:33:58.625Z,301
2018-08-18T01:34:11.034Z,288
2018-08-18T01:34:23.432Z,271
2018-08-18T01:34:35.849Z,290
2018-08-18T01:34:48.297Z,290
2018-08-18T01:35:00.724Z,290
2018-08-18T01:35:13.139Z,294
2018-08-18T01:35:25.546Z,290
2018-08-18T01:35:37.963Z,296
2018-08-18T01:35:50.362Z,313
2018-08-18T01:36:02.772Z,304
2018-08-18T01:36:15.196Z,302
2018-08-18T01:36:27.636Z,294
2018-08-18T01:36:40.056Z,293
2018-08-18T01:36:52.476Z,292
2018-08-18T01:37:04.893Z,292
2018-08-18T01:37:17.293Z,300
2018-08-18T01:37:29.847Z,297
2018-08-18T01:37:42.261Z,288
2018-08-18T01:37:54.683Z,304
2018-08-18T01:38:07.096Z,309
2018-08-18T01:38:19.534Z,310
2018-08-18T01:38:31.975Z,324
2018-08-18T01:38:44.449Z,330
2018-08-18T01:38:56.894Z,297
2018-08-18T01:39:09.407Z,297
2018-08-18T01:39:21.968Z,293
2018-08-18T01:39:34.398Z,293
2018-08-18T01:39:46.846Z,299
2018-08-18T01:39:59.266Z,311
2018-08-18T01:40:11.801Z,296
2018-08-18T01:40:24.236Z,297
2018-08-18T01:40:36.656Z,303
2018-08-18T01:40:49.079Z,304
2018-08-18T01:41:01.496Z,319
2018-08-18T01:41:13.924Z,333
2018-08-18T01:41:26.355Z,333
2018-08-18T01:41:38.830Z,323
2018-08-18T01:41:51.265Z,323
2018-08-18T01:42:03.683Z,323
2018-08-18T01:42:16.090Z,323
2018-08-18T01:42:28.513Z,323
2018-08-18T01:42:40.925Z,323
2018-08-18T01:42:53.367Z,321
2018-08-18T01:43:05.786Z,319
2018-08-18T01:43:18.188Z,319
2018-08-18T01:43:30.614Z,319
2018-08-18T01:43:43.222Z,293
2018-08-18T01:43:56.834Z,281
2018-08-18T01:44:09.335Z,300
2018-08-18T01:44:21.834Z,315
2018-08-18T01:44:34.253Z,336
2018-08-18T01:44:46.697Z,329
2018-08-18T01:44:59.114Z,314
2018-08-18T01:45:11.592Z,317
2018-08-18T01:45:24.017Z,317
2018-08-18T01:45:36.454Z,316
2018-08-18T01:45:49.032Z,316
2018-08-18T01:46:01.473Z,316
2018-08-18T01:46:13.877Z,316
2018-08-18T01:46:26.299Z,316
2018-08-18T01:46:38.705Z,316
2018-08-18T01:46:51.109Z,321
2018-08-18T01:47:03.538Z,304
2018-08-18T01:47:15.954Z,300
2018-08-18T01:47:28.367Z,300
2018-08-18T01:47:40.782Z,300
2018-08-18T01:47:53.185Z,301
2018-08-18T01:48:05.594Z,321
2018-08-18T01:48:18.006Z,320
2018-08-18T01:48:30.422Z,316
2018-08-18T01:48:42.835Z,316
2018-08-18T01:48:55.246Z,319
2018-08-18T01:49:07.831Z,319
2018-08-18T01:49:20.230Z,309
2018-08-18T01:49:32.672Z,309
2018-08-18T01:49:45.075Z,309
2018-08-18T01:49:57.519Z,309
2018-08-18T01:50:09.996Z,311
2018-08-18T01:50:22.403Z,311
2018-08-18T01:50:34.821Z,315
2018-08-18T01:50:47.297Z,315
2018-08-18T01:50:59.719Z,315
2018-08-18T01:51:12.127Z,315
2018-08-18T01:51:24.549Z,315
2018-08-18T01:51:36.942Z,315
2018-08-18T01:51:49.435Z,315
2018-08-18T01:52:02.056Z,315
2018-08-18T01:52:14.469Z,315
2018-08-18T01:52:26.881Z,342
2018-08-18T01:52:39.275Z,355
2018-08-18T01:52:51.693Z,360
2018-08-18T01:53:04.099Z,360
2018-08-18T01:53:16.500Z,5
2018-08-18T01:53:28.919Z,329
2018-08-18T01:53:41.344Z,350
2018-08-18T01:53:53.760Z,355
2018-08-18T01:54:06.309Z,345
2018-08-18T01:54:18.718Z,344
2018-08-18T01:54:31.120Z,344
2018-08-18T01:54:43.536Z,344
2018-08-18T01:54:55.972Z,344
2018-08-18T01:55:08.400Z,344
2018-08-18T01:55:20.825Z,360
2018-08-18T01:55:33.246Z,360
2018-08-18T01:55:45.653Z,5
2018-08-18T01:55:58.076Z,360
2018-08-18T01:56:10.491Z,17
2018-08-18T01:56:22.918Z,360
2018-08-18T01:56:35.355Z,355
2018-08-18T01:56:47.754Z,351
2018-08-18T01:57:00.192Z,351
2018-08-18T01:57:12.635Z,342
2018-08-18T01:57:25.053Z,329
2018-08-18T01:57:37.476Z,317
2018-08-18T01:57:49.902Z,317
2018-08-18T01:58:02.340Z,321
2018-08-18T01:58:14.804Z,314
2018-08-18T01:58:27.239Z,308
2018-08-18T01:58:39.657Z,318
2018-08-18T01:58:52.068Z,313
2018-08-18T01:59:04.498Z,310
2018-08-18T01:59:16.898Z,310
2018-08-18T01:59:29.303Z,313
2018-08-18T01:59:41.719Z,313
2018-08-18T01:59:54.192Z,314
2018-08-18T02:00:06.623Z,335
2018-08-18T02:00:19.112Z,335
2018-08-18T02:00:31.627Z,335
2018-08-18T02:00:44.070Z,334
2018-08-18T02:00:56.498Z,333
2018-08-18T02:01:08.925Z,314
2018-08-18T02:01:21.368Z,315
2018-08-18T02:01:33.784Z,315
2018-08-18T02:01:46.225Z,311
2018-08-18T02:01:58.903Z,311
2018-08-18T02:02:11.339Z,298
2018-08-18T02:02:23.768Z,316
2018-08-18T02:02:36.395Z,306
2018-08-18T02:02:48.838Z,302
2018-08-18T02:03:01.270Z,309
2018-08-18T02:03:13.708Z,311
2018-08-18T02:03:26.153Z,313
2018-08-18T02:03:38.582Z,309
2018-08-18T02:03:51.005Z,308
2018-08-18T02:04:03.402Z,308
2018-08-18T02:04:15.829Z,308
2018-08-18T02:04:28.253Z,308
2018-08-18T02:04:40.661Z,308
2018-08-18T02:04:53.090Z,308
2018-08-18T02:05:05.522Z,308
2018-08-18T02:05:17.969Z,308
2018-08-18T02:05:30.438Z,310
2018-08-18T02:05:42.866Z,311
2018-08-18T02:05:55.266Z,312
2018-08-18T02:06:07.687Z,312
2018-08-18T02:06:20.100Z,312
2018-08-18T02:06:32.563Z,312
2018-08-18T02:06:44.996Z,312
2018-08-18T02:06:57.407Z,10
2018-08-18T02:07:09.889Z,10
2018-08-18T02:07:22.326Z,29
2018-08-18T02:07:34.733Z,34
2018-08-18T02:07:47.148Z,34
2018-08-18T02:07:59.570Z,34
2018-08-18T02:08:12.006Z,34
2018-08-18T02:08:24.438Z,34
2018-08-18T02:08:37.005Z,34
2018-08-18T02:08:49.398Z,34
2018-08-18T02:09:01.805Z,34
2018-08-18T02:09:14.230Z,34
2018-08-18T02:09:26.691Z,34
2018-08-18T02:09:39.125Z,34
2018-08-18T02:09:51.561Z,34
2018-08-18T02:10:04.014Z,34
2018-08-18T02:10:16.446Z,33
2018-08-18T02:10:28.886Z,33
2018-08-18T02:10:41.299Z,33
2018-08-18T02:10:53.744Z,33
2018-08-18T02:11:06.330Z,33
2018-08-18T02:11:18.735Z,280
2018-08-18T02:11:31.147Z,302
2018-08-18T02:11:43.707Z,295
2018-08-18T02:11:56.126Z,298
2018-08-18T02:12:08.545Z,300
2018-08-18T02:12:20.989Z,303
2018-08-18T02:12:33.416Z,306
2018-08-18T02:12:45.836Z,306
2018-08-18T02:12:58.247Z,306
2018-08-18T02:13:10.696Z,306
2018-08-18T02:13:23.139Z,319
2018-08-18T02:13:35.593Z,319
2018-08-18T02:13:48.016Z,319
2018-08-18T02:14:00.425Z,320
2018-08-18T02:14:12.883Z,301
2018-08-18T02:14:25.281Z,316
2018-08-18T02:14:37.693Z,315
2018-08-18T02:14:50.101Z,316
2018-08-18T02:15:02.534Z,316
2018-08-18T02:15:14.941Z,316
2018-08-18T02:15:27.356Z,316
2018-08-18T02:15:39.828Z,317
2018-08-18T02:15:52.241Z,317
2018-08-18T02:16:04.667Z,319
2018-08-18T02:16:17.230Z,319
2018-08-18T02:16:29.635Z,319
2018-08-18T02:16:42.369Z,333
2018-08-18T02:16:54.955Z,355
2018-08-18T02:17:07.397Z,355
2018-08-18T02:17:19.810Z,342
2018-08-18T02:17:32.249Z,341
2018-08-18T02:17:44.908Z,342
2018-08-18T02:17:57.340Z,342
2018-08-18T02:18:09.764Z,342
2018-08-18T02:18:22.185Z,341
2018-08-18T02:18:34.603Z,341
2018-08-18T02:18:47.032Z,329
2018-08-18T02:18:59.434Z,319
2018-08-18T02:19:11.853Z,319
2018-08-18T02:19:24.273Z,319
2018-08-18T02:19:36.719Z,319
2018-08-18T02:19:49.195Z,319
2018-08-18T02:20:02.642Z,319
2018-08-18T02:20:16.093Z,319
2018-08-18T02:20:28.527Z,319
2018-08-18T02:20:41.037Z,319
2018-08-18T02:20:53.469Z,319
2018-08-18T02:21:05.881Z,319
2018-08-18T02:21:18.292Z,319
2018-08-18T02:21:30.713Z,320
2018-08-18T02:21:43.134Z,320
2018-08-18T02:21:55.542Z,320
2018-08-18T02:22:07.966Z,320
2018-08-18T02:22:20.567Z,320
2018-08-18T02:22:32.999Z,320
2018-08-18T02:22:45.411Z,320
2018-08-18T02:22:57.851Z,318
2018-08-18T02:23:10.279Z,318
2018-08-18T02:23:22.706Z,317
2018-08-18T02:23:35.119Z,317
2018-08-18T02:23:47.516Z,317
2018-08-18T02:23:59.932Z,317
2018-08-18T02:24:12.341Z,318
2018-08-18T02:24:24.744Z,318
2018-08-18T02:24:37.151Z,318
2018-08-18T02:24:49.638Z,318
2018-08-18T02:25:02.088Z,318
2018-08-18T02:25:14.763Z,318
2018-08-18T02:25:27.171Z,318
2018-08-18T02:25:39.591Z,318
2018-08-18T02:25:52.016Z,318
2018-08-18T02:26:04.432Z,318
2018-08-18T02:26:16.874Z,318
2018-08-18T02:26:29.331Z,318
2018-08-18T02:26:41.905Z,318
2018-08-18T02:26:54.306Z,318
2018-08-18T02:27:06.708Z,318
2018-08-18T02:27:19.136Z,318
2018-08-18T02:27:31.692Z,318
2018-08-18T02:27:44.148Z,318
2018-08-18T02:27:56.576Z,318
2018-08-18T02:28:08.990Z,318
2018-08-18T02:28:21.401Z,318
2018-08-18T02:28:33.806Z,318
2018-08-18T02:28:46.216Z,318
2018-08-18T02:28:58.636Z,318
2018-08-18T02:29:11.068Z,325
2018-08-18T02:29:23.469Z,325
2018-08-18T02:29:35.885Z,325
2018-08-18T02:29:48.303Z,324
2018-08-18T02:30:00.758Z,324
2018-08-18T02:30:13.367Z,324
2018-08-18T02:30:25.877Z,324
2018-08-18T02:30:38.276Z,324
2018-08-18T02:30:50.719Z,324
2018-08-18T02:31:03.139Z,325
2018-08-18T02:31:15.625Z,325
2018-08-18T02:31:28.045Z,325
2018-08-18T02:31:40.479Z,325
2018-08-18T02:31:52.917Z,325
2018-08-18T02:32:05.336Z,325
2018-08-18T02:32:17.764Z,325
2018-08-18T02:32:30.175Z,325
2018-08-18T02:32:42.621Z,325
2018-08-18T02:32:55.068Z,325
2018-08-18T02:33:07.508Z,325
2018-08-18T02:33:19.941Z,325
2018-08-18T02:33:32.370Z,325
2018-08-18T02:33:44.812Z,325
2018-08-18T02:33:57.222Z,325
2018-08-18T02:34:09.636Z,325
2018-08-18T02:34:22.064Z,325
2018-08-18T02:34:34.486Z,325
2018-08-18T02:34:46.883Z,325
2018-08-18T02:34:59.316Z,325
2018-08-18T02:35:11.870Z,325
2018-08-18T02:35:24.290Z,325
2018-08-18T02:35:36.721Z,325
2018-08-18T02:35:49.140Z,325
2018-08-18T02:36:01.548Z,325
2018-08-18T02:36:13.961Z,325
2018-08-18T02:36:26.388Z,325
2018-08-18T02:36:38.844Z,325
2018-08-18T02:36:51.274Z,325
2018-08-18T02:37:03.690Z,325
2018-08-18T02:37:16.124Z,325
2018-08-18T02:37:28.561Z,325
2018-08-18T02:37:40.999Z,325
2018-08-18T02:37:53.434Z,325
2018-08-18T02:38:05.841Z,325
2018-08-18T02:38:18.315Z,333
2018-08-18T02:38:30.729Z,333
2018-08-18T02:38:43.141Z,333
2018-08-18T02:38:55.590Z,333
2018-08-18T02:39:08.002Z,333
2018-08-18T02:39:20.440Z,333
2018-08-18T02:39:32.853Z,334
2018-08-18T02:39:45.276Z,334
2018-08-18T02:39:58.101Z,334
2018-08-18T02:40:11.692Z,342
2018-08-18T02:40:24.724Z,342
2018-08-18T02:40:37.160Z,342
2018-08-18T02:40:49.565Z,342
2018-08-18T02:41:01.988Z,342
2018-08-18T02:41:14.420Z,342
2018-08-18T02:41:26.841Z,342
2018-08-18T02:41:39.266Z,342
2018-08-18T02:41:51.683Z,342
2018-08-18T02:42:04.198Z,342
2018-08-18T02:42:16.627Z,342
2018-08-18T02:42:29.066Z,342
2018-08-18T02:42:41.495Z,342
2018-08-18T02:42:53.919Z,342
2018-08-18T02:43:06.370Z,342
2018-08-18T02:43:18.793Z,342
2018-08-18T02:43:31.272Z,342
2018-08-18T02:43:43.709Z,342
2018-08-18T02:43:56.248Z,342
2018-08-18T02:44:08.706Z,342
2018-08-18T02:44:21.142Z,342
2018-08-18T02:44:33.587Z,342
2018-08-18T02:44:46.012Z,342
2018-08-18T02:44:58.483Z,342
2018-08-18T02:45:10.914Z,342
2018-08-18T02:45:23.366Z,342
2018-08-18T02:45:35.773Z,342
2018-08-18T02:45:48.189Z,342
2018-08-18T02:46:00.642Z,342
2018-08-18T02:46:13.058Z,342
2018-08-18T02:46:25.470Z,342
2018-08-18T02:46:37.897Z,342
2018-08-18T02:46:50.330Z,342
2018-08-18T02:47:02.783Z,342
2018-08-18T02:47:15.240Z,342
2018-08-18T02:47:27.681Z,340
2018-08-18T02:47:40.133Z,340
2018-08-18T02:47:52.609Z,340
2018-08-18T02:48:05.022Z,340
2018-08-18T02:48:17.474Z,327
2018-08-18T02:48:29.886Z,322
2018-08-18T02:48:42.369Z,315
2018-08-18T02:48:54.801Z,315
2018-08-18T02:49:07.425Z,306
2018-08-18T02:49:19.871Z,326
2018-08-18T02:49:32.294Z,324
2018-08-18T02:49:44.748Z,323
2018-08-18T02:49:57.171Z,323
2018-08-18T02:50:09.598Z,323
2018-08-18T02:50:22.002Z,315
2018-08-18T02:50:34.424Z,292
2018-08-18T02:50:46.856Z,304
2018-08-18T02:50:59.278Z,302
2018-08-18T02:51:11.727Z,311
2018-08-18T02:51:24.150Z,303
2018-08-18T02:51:36.588Z,319
2018-08-18T02:51:49.021Z,319
2018-08-18T02:52:01.602Z,306
2018-08-18T02:52:14.020Z,306
2018-08-18T02:52:26.574Z,306
2018-08-18T02:52:38.996Z,306
2018-08-18T02:52:51.468Z,306
2018-08-18T02:53:03.906Z,306